Time;durP1;ratioP1;P1;durP2;ratioP2;P2;SDS_P1;SDS_P2;PMS_P1;PMS_P2;Temp;Humidity;BMP_temperature;BMP_pressure;BME280_temperature;BME280_humidity;BME280_pressure;Samples;Min_cycle;Max_cycle;Signal;HPM_P1;HPM_P2
2023/09/24 00:00:10;;;;;;;1.30;0.80;;;23.30;58.00;;;;;;5072773;28;20503;-68
2023/09/24 00:02:36;;;;;;;1.03;0.83;;;23.30;58.00;;;;;;5074177;28;20259;-68
2023/09/24 00:05:01;;;;;;;1.20;1.00;;;23.30;58.60;;;;;;5074258;28;20959;-67
2023/09/24 00:07:27;;;;;;;1.40;1.10;;;23.30;58.00;;;;;;5074128;28;20439;-68
2023/09/24 00:09:53;;;;;;;1.00;0.87;;;23.30;58.00;;;;;;5074055;28;20709;-67
2023/09/24 00:12:18;;;;;;;1.03;0.90;;;23.30;58.00;;;;;;5074107;28;20229;-67
2023/09/24 00:14:44;;;;;;;1.30;0.80;;;23.30;58.00;;;;;;5074061;28;20206;-68
2023/09/24 00:17:10;;;;;;;0.90;0.70;;;23.30;58.00;;;;;;5072687;28;20179;-67
2023/09/24 00:19:35;;;;;;;1.00;0.80;;;23.30;58.00;;;;;;5073937;28;20604;-68
2023/09/24 00:22:02;;;;;;;1.00;0.80;;;23.20;58.00;;;;;;5073889;28;20221;-67
2023/09/24 00:24:27;;;;;;;0.80;0.63;;;23.20;57.90;;;;;;5074087;28;20178;-66
2023/09/24 00:26:53;;;;;;;1.07;0.73;;;23.30;58.00;;;;;;5073986;28;20423;-64
2023/09/24 00:29:19;;;;;;;1.00;0.90;;;23.20;57.90;;;;;;5074037;28;20257;-67
2023/09/24 00:31:44;;;;;;;1.00;0.90;;;23.30;58.60;;;;;;5073602;28;20560;-66
2023/09/24 00:34:10;;;;;;;1.03;0.73;;;23.30;58.00;;;;;;5075588;28;20675;-67
2023/09/24 00:36:36;;;;;;;1.00;0.70;;;23.30;58.00;;;;;;5093691;28;20244;-67
2023/09/24 00:39:01;;;;;;;0.90;0.70;;;23.30;58.00;;;;;;5093878;28;20181;-67
2023/09/24 00:41:27;;;;;;;0.90;0.70;;;23.20;57.90;;;;;;5093838;28;20177;-66
2023/09/24 00:43:53;;;;;;;1.33;1.00;;;23.30;58.00;;;;;;5093573;28;20288;-68
2023/09/24 00:46:21;;;;;;;1.73;1.10;;;23.30;58.10;;;;;;5093720;28;20252;-68
2023/09/24 00:48:47;;;;;;;1.07;0.80;;;23.20;58.00;;;;;;5092472;28;20666;-68
2023/09/24 00:51:17;;;;;;;1.13;0.90;;;23.20;57.90;;;;;;5093522;28;20422;-67
2023/09/24 00:53:43;;;;;;;1.20;1.03;;;23.20;57.90;;;;;;5093999;28;20423;-65
2023/09/24 00:56:09;;;;;;;1.10;0.87;;;23.20;58.00;;;;;;5093720;28;20459;-66
2023/09/24 00:58:36;;;;;;;1.10;0.83;;;23.20;57.90;;;;;;5093546;28;20839;-67
2023/09/24 01:01:03;;;;;;;0.90;0.70;;;23.30;58.00;;;;;;5093709;28;20442;-67
2023/09/24 01:03:29;;;;;;;1.03;0.77;;;23.20;57.90;;;;;;5093349;28;20511;-67
2023/09/24 01:05:55;;;;;;;1.00;0.80;;;23.20;57.90;;;;;;5093531;28;20507;-68
2023/09/24 01:08:23;;;;;;;1.20;0.80;;;23.20;57.90;;;;;;5093687;28;20235;-68
2023/09/24 01:10:50;;;;;;;0.90;0.70;;;23.20;57.90;;;;;;5093325;28;20415;-68
2023/09/24 01:13:22;;;;;;;0.90;0.70;;;23.20;57.90;;;;;;5093715;28;20435;-68
2023/09/24 01:15:48;;;;;;;0.90;0.80;;;23.20;57.90;;;;;;5093162;28;20448;-67
2023/09/24 01:18:15;;;;;;;1.07;0.90;;;23.20;57.90;;;;;;5093294;28;21173;-68
2023/09/24 01:20:41;;;;;;;1.13;0.90;;;23.20;57.90;;;;;;5093128;28;20192;-66
2023/09/24 01:23:11;;;;;;;1.00;0.70;;;23.20;57.90;;;;;;5092879;28;20431;-67
2023/09/24 01:25:37;;;;;;;1.30;0.90;;;23.20;58.00;;;;;;5091745;28;20919;-68
2023/09/24 01:28:04;;;;;;;0.90;0.70;;;23.20;57.90;;;;;;5093086;28;20410;-67
2023/09/24 01:30:31;;;;;;;1.30;0.80;;;23.20;58.00;;;;;;5092951;28;20774;-68
2023/09/24 01:32:57;;;;;;;0.87;0.70;;;23.20;58.00;;;;;;5093042;28;20438;-67
2023/09/24 01:35:27;;;;;;;0.90;0.70;;;23.20;57.90;;;;;;5092914;28;20483;-67
2023/09/24 01:37:59;;;;;;;0.90;0.60;;;23.20;57.90;;;;;;5092811;28;20404;-67
2023/09/24 01:40:32;;;;;;;0.90;0.70;;;23.20;57.90;;;;;;5092990;28;20399;-67
2023/09/24 01:42:59;;;;;;;1.00;0.70;;;23.20;58.00;;;;;;5092544;28;20423;-67
2023/09/24 01:45:26;;;;;;;0.93;0.77;;;23.20;58.00;;;;;;5092694;28;20908;-68
2023/09/24 01:47:52;;;;;;;0.80;0.60;;;23.20;58.00;;;;;;5092985;28;20446;-68
2023/09/24 01:50:18;;;;;;;1.00;0.80;;;23.20;58.00;;;;;;5091995;28;20464;-67
2023/09/24 01:52:45;;;;;;;0.93;0.70;;;23.20;58.00;;;;;;5092379;28;20223;-67
2023/09/24 01:55:18;;;;;;;1.20;0.90;;;23.10;57.90;;;;;;5092078;28;20545;-66
2023/09/24 01:57:44;;;;;;;1.00;0.90;;;23.20;58.00;;;;;;5092544;28;20396;-67
2023/09/24 02:00:26;;;;;;;0.97;0.70;;;23.20;58.00;;;;;;5092212;28;21232;-67
2023/09/24 02:02:54;;;;;;;1.27;0.93;;;23.20;58.00;;;;;;5092166;28;20426;-67
2023/09/24 02:05:20;;;;;;;1.20;1.10;;;23.10;57.90;;;;;;5092245;28;20422;-68
2023/09/24 02:07:49;;;;;;;1.20;0.90;;;23.20;58.00;;;;;;5092212;28;20427;-67
2023/09/24 02:10:18;;;;;;;1.40;1.00;;;23.20;58.00;;;;;;5092247;28;20796;-64
2023/09/24 02:12:45;;;;;;;1.20;0.80;;;23.10;57.90;;;;;;5092015;28;20439;-67
2023/09/24 02:15:15;;;;;;;0.93;0.73;;;23.20;58.00;;;;;;5092322;28;20466;-68
2023/09/24 02:17:41;;;;;;;1.10;0.70;;;23.20;58.00;;;;;;5091851;28;20449;-62
2023/09/24 02:20:11;;;;;;;0.90;0.70;;;23.20;58.00;;;;;;5091850;28;20428;-68
2023/09/24 02:22:36;;;;;;;1.00;0.70;;;23.20;58.00;;;;;;5092182;28;20431;-67
2023/09/24 02:25:03;;;;;;;0.80;0.60;;;23.20;58.00;;;;;;5091981;28;20410;-68
2023/09/24 02:27:29;;;;;;;1.00;0.83;;;23.20;58.00;;;;;;5091825;28;20251;-67
2023/09/24 02:29:54;;;;;;;1.00;0.80;;;23.20;58.00;;;;;;5091754;28;20485;-67
2023/09/24 02:32:20;;;;;;;1.00;0.90;;;23.20;58.00;;;;;;5091605;28;20197;-67
2023/09/24 02:34:46;;;;;;;0.90;0.70;;;23.10;57.90;;;;;;5090495;28;20628;-67
2023/09/24 02:37:11;;;;;;;0.90;0.70;;;23.20;58.00;;;;;;5092006;28;20189;-67
2023/09/24 02:39:37;;;;;;;0.87;0.67;;;23.20;58.00;;;;;;5091628;28;20170;-68
2023/09/24 02:42:03;;;;;;;0.90;0.63;;;23.10;57.90;;;;;;5091617;28;20629;-68
2023/09/24 02:44:30;;;;;;;1.10;0.80;;;23.10;57.90;;;;;;5091617;28;20181;-67
2023/09/24 02:46:56;;;;;;;1.00;0.70;;;23.10;57.90;;;;;;5091497;28;20494;-66
2023/09/24 02:49:21;;;;;;;1.10;0.70;;;23.10;57.90;;;;;;5091551;28;20498;-67
2023/09/24 02:51:49;;;;;;;0.90;0.70;;;23.10;57.90;;;;;;5091472;28;20445;-68
2023/09/24 02:54:16;;;;;;;1.13;0.80;;;23.10;57.90;;;;;;5091406;28;20610;-67
2023/09/24 02:56:41;;;;;;;0.80;0.60;;;23.10;57.90;;;;;;5091517;28;20412;-67
2023/09/24 02:59:11;;;;;;;1.43;0.70;;;23.10;58.50;;;;;;5091425;28;20475;-68
2023/09/24 03:01:36;;;;;;;0.90;0.70;;;23.10;57.90;;;;;;5091362;28;20165;-68
2023/09/24 03:04:02;;;;;;;1.33;0.80;;;23.10;57.90;;;;;;5091400;28;20439;-68
2023/09/24 03:06:28;;;;;;;0.90;0.80;;;23.10;57.90;;;;;;5091708;28;20554;-67
2023/09/24 03:08:54;;;;;;;0.97;0.80;;;23.10;57.90;;;;;;5091429;28;20223;-68
2023/09/24 03:11:19;;;;;;;1.30;0.80;;;23.10;57.90;;;;;;5091256;28;20545;-65
2023/09/24 03:13:45;;;;;;;1.60;0.90;;;23.10;58.00;;;;;;5091380;28;20185;-67
2023/09/24 03:16:10;;;;;;;1.23;0.90;;;23.10;57.90;;;;;;5091268;28;20208;-67
2023/09/24 03:18:36;;;;;;;1.00;0.87;;;23.10;57.90;;;;;;5091158;28;20178;-68
2023/09/24 03:21:06;;;;;;;1.00;0.77;;;23.10;58.00;;;;;;5091232;28;20220;-67
2023/09/24 03:23:31;;;;;;;1.00;0.83;;;23.10;58.00;;;;;;5089811;28;20193;-66
2023/09/24 03:25:57;;;;;;;0.90;0.70;;;23.10;57.90;;;;;;5091303;28;20411;-66
2023/09/24 03:28:23;;;;;;;0.90;0.70;;;23.10;57.90;;;;;;5091456;28;20177;-68
2023/09/24 03:30:48;;;;;;;1.43;0.87;;;23.10;57.90;;;;;;5090983;28;20616;-67
2023/09/24 03:33:14;;;;;;;1.00;0.87;;;23.10;58.00;;;;;;5091208;28;21013;-67
2023/09/24 03:35:40;;;;;;;1.03;0.80;;;23.10;57.90;;;;;;5090960;28;20269;-66
2023/09/24 03:38:05;;;;;;;1.20;0.90;;;23.10;57.90;;;;;;5091044;28;20176;-67
2023/09/24 03:40:31;;;;;;;1.00;0.77;;;23.10;57.90;;;;;;5091018;28;20411;-67
2023/09/24 03:42:57;;;;;;;1.07;0.70;;;23.00;57.90;;;;;;5091069;28;20197;-67
2023/09/24 03:45:24;;;;;;;0.83;0.60;;;23.10;58.00;;;;;;5090949;28;20500;-66
2023/09/24 03:47:50;;;;;;;1.00;0.77;;;23.10;57.90;;;;;;5090884;28;20193;-67
2023/09/24 03:50:17;;;;;;;0.80;0.60;;;23.10;57.90;;;;;;5090940;28;20802;-67
2023/09/24 03:52:47;;;;;;;0.90;0.70;;;23.10;57.90;;;;;;5091107;28;20442;-67
2023/09/24 03:55:13;;;;;;;1.00;0.73;;;23.10;57.90;;;;;;5091186;28;20823;-67
2023/09/24 03:57:39;;;;;;;0.80;0.70;;;23.10;57.90;;;;;;5090899;28;20404;-67
2023/09/24 04:00:10;;;;;;;0.87;0.60;;;23.00;57.90;;;;;;5090915;28;20826;-67
2023/09/24 04:02:37;;;;;;;0.90;0.70;;;23.10;57.90;;;;;;5091282;28;20182;-67
2023/09/24 04:05:03;;;;;;;1.30;0.90;;;23.10;57.90;;;;;;5091192;28;20431;-67
2023/09/24 04:07:29;;;;;;;1.07;0.80;;;23.10;57.90;;;;;;5091318;28;20465;-67
2023/09/24 04:09:55;;;;;;;0.90;0.80;;;23.00;58.10;;;;;;5090912;28;20800;-67
2023/09/24 04:12:21;;;;;;;1.20;0.90;;;23.00;57.90;;;;;;5091961;28;20208;-67
2023/09/24 04:14:52;;;;;;;0.90;0.70;;;23.00;57.90;;;;;;5094214;28;20814;-67
2023/09/24 04:17:17;;;;;;;1.00;0.70;;;23.00;57.90;;;;;;5094232;28;20149;-67
2023/09/24 04:19:43;;;;;;;1.10;0.70;;;23.00;57.90;;;;;;5094259;28;20424;-67
2023/09/24 04:22:08;;;;;;;1.07;0.80;;;23.00;57.90;;;;;;5094151;28;20185;-66
2023/09/24 04:24:36;;;;;;;0.97;0.73;;;23.00;57.90;;;;;;5094085;28;20180;-67
2023/09/24 04:27:01;;;;;;;0.93;0.83;;;23.00;57.90;;;;;;5094221;28;20550;-66
2023/09/24 04:29:27;;;;;;;0.90;0.70;;;23.00;57.90;;;;;;5094092;28;20453;-66
2023/09/24 04:31:52;;;;;;;1.07;0.73;;;23.00;57.90;;;;;;5093818;28;20178;-66
2023/09/24 04:34:19;;;;;;;1.13;0.80;;;23.00;57.90;;;;;;5093830;28;20201;-66
2023/09/24 04:36:44;;;;;;;0.93;0.70;;;23.00;57.90;;;;;;5094073;28;20265;-67
2023/09/24 04:39:10;;;;;;;0.90;0.70;;;23.00;57.90;;;;;;5094207;28;20966;-67
2023/09/24 04:41:41;;;;;;;1.20;0.80;;;23.00;57.90;;;;;;5093943;28;20166;-66
2023/09/24 04:44:07;;;;;;;1.13;0.70;;;23.00;57.90;;;;;;5093745;28;20186;-67
2023/09/24 04:46:33;;;;;;;1.00;0.80;;;23.00;57.90;;;;;;5093651;28;20407;-67
2023/09/24 04:48:59;;;;;;;1.10;0.90;;;23.00;57.90;;;;;;5093662;28;20414;-66
2023/09/24 04:51:25;;;;;;;1.00;0.77;;;23.00;57.90;;;;;;5093921;28;20408;-68
2023/09/24 04:53:50;;;;;;;1.00;0.80;;;23.00;57.90;;;;;;5093403;28;20785;-67
2023/09/24 04:56:16;;;;;;;1.00;0.70;;;23.00;57.90;;;;;;5093614;28;20202;-66
2023/09/24 04:58:41;;;;;;;1.00;0.77;;;23.00;57.90;;;;;;5093393;28;20219;-66
2023/09/24 05:01:08;;;;;;;1.10;1.00;;;23.00;57.90;;;;;;5093168;28;20169;-66
2023/09/24 05:03:36;;;;;;;1.10;0.80;;;23.00;57.90;;;;;;5091676;28;20201;-67
2023/09/24 05:06:03;;;;;;;1.00;0.80;;;23.00;58.50;;;;;;5093169;28;20408;-67
2023/09/24 05:08:29;;;;;;;1.13;0.73;;;23.00;57.90;;;;;;5092998;28;20399;-66
2023/09/24 05:10:54;;;;;;;1.20;0.80;;;23.00;57.90;;;;;;5093477;28;20412;-66
2023/09/24 05:13:20;;;;;;;1.00;0.80;;;23.00;57.90;;;;;;5093106;28;20193;-66
2023/09/24 05:15:51;;;;;;;1.00;0.80;;;23.00;57.90;;;;;;5093124;28;20683;-68
2023/09/24 05:18:17;;;;;;;0.90;0.60;;;23.00;57.90;;;;;;5093179;28;20222;-66
2023/09/24 05:20:42;;;;;;;1.03;0.80;;;23.00;57.90;;;;;;5092989;28;20427;-66
2023/09/24 05:23:08;;;;;;;0.83;0.63;;;23.00;58.40;;;;;;5092690;28;20227;-67
2023/09/24 05:25:36;;;;;;;1.00;0.70;;;22.90;57.80;;;;;;5092336;28;20181;-65
2023/09/24 05:28:02;;;;;;;1.00;0.70;;;22.90;57.80;;;;;;5092916;28;20181;-67
2023/09/24 05:30:27;;;;;;;0.90;0.70;;;22.90;57.80;;;;;;5092933;28;20412;-67
2023/09/24 05:32:53;;;;;;;1.00;0.70;;;23.00;57.90;;;;;;5091374;28;20204;-64
2023/09/24 05:35:18;;;;;;;0.90;0.70;;;23.00;57.90;;;;;;5092654;28;20292;-66
2023/09/24 05:37:44;;;;;;;0.90;0.63;;;22.90;57.80;;;;;;5092672;28;20169;-68
2023/09/24 05:40:10;;;;;;;0.90;0.60;;;22.90;57.80;;;;;;5092691;28;20166;-67
2023/09/24 05:42:36;;;;;;;0.80;0.63;;;22.90;58.40;;;;;;5092587;28;20186;-67
2023/09/24 05:45:02;;;;;;;1.00;0.90;;;22.90;57.80;;;;;;5092807;28;20411;-67
2023/09/24 05:47:30;;;;;;;0.90;0.70;;;22.90;57.80;;;;;;5092666;28;20174;-66
2023/09/24 05:49:55;;;;;;;0.90;0.70;;;22.90;57.80;;;;;;5092440;28;20411;-65
2023/09/24 05:52:21;;;;;;;0.93;0.77;;;22.90;57.80;;;;;;5092389;28;21016;-69
2023/09/24 05:54:46;;;;;;;1.20;0.70;;;22.90;57.80;;;;;;5091757;28;20306;-68
2023/09/24 05:57:12;;;;;;;1.10;0.70;;;23.00;57.90;;;;;;5085783;28;20183;-66
2023/09/24 05:59:38;;;;;;;0.97;0.80;;;22.90;57.90;;;;;;5080679;28;20193;-67
2023/09/24 06:02:04;;;;;;;1.00;0.90;;;23.00;58.00;;;;;;5082383;28;20232;-65
2023/09/24 06:04:30;;;;;;;2.30;0.90;;;23.00;58.00;;;;;;5081126;28;20408;-67
2023/09/24 06:06:56;;;;;;;1.20;0.80;;;23.00;58.00;;;;;;5080572;28;20170;-66
2023/09/24 06:09:21;;;;;;;2.17;0.87;;;23.00;58.00;;;;;;5078823;28;20428;-67
2023/09/24 06:11:49;;;;;;;3.00;0.93;;;23.00;58.00;;;;;;5081528;28;20205;-66
2023/09/24 06:14:15;;;;;;;1.10;0.83;;;23.00;58.10;;;;;;5080236;28;20647;-69
2023/09/24 06:16:40;;;;;;;2.50;1.10;;;23.00;58.00;;;;;;5089690;28;21235;-65
2023/09/24 06:19:06;;;;;;;1.10;0.80;;;23.00;57.80;;;;;;5091183;28;20419;-67
2023/09/24 06:21:32;;;;;;;1.00;0.90;;;23.00;57.80;;;;;;5091140;28;20228;-69
2023/09/24 06:23:57;;;;;;;1.30;1.00;;;23.00;57.80;;;;;;5091282;28;20193;-68
2023/09/24 06:26:24;;;;;;;1.93;1.13;;;23.00;57.80;;;;;;5091416;28;20647;-67
2023/09/24 06:28:50;;;;;;;1.60;1.10;;;23.00;57.80;;;;;;5091459;28;20174;-68
2023/09/24 06:31:16;;;;;;;1.43;1.00;;;23.00;57.90;;;;;;5091339;28;20399;-68
2023/09/24 06:33:42;;;;;;;1.87;0.90;;;23.00;57.90;;;;;;5091562;28;20454;-68
2023/09/24 06:36:09;;;;;;;1.77;0.90;;;23.00;57.90;;;;;;5091306;28;20205;-67
2023/09/24 06:38:35;;;;;;;2.90;1.20;;;23.00;57.90;;;;;;5091257;28;20232;-68
2023/09/24 06:41:03;;;;;;;3.30;1.20;;;22.90;57.80;;;;;;5091309;28;20480;-67
2023/09/24 06:43:30;;;;;;;3.00;1.20;;;23.00;57.90;;;;;;5091111;28;20192;-66
2023/09/24 06:45:56;;;;;;;1.40;1.00;;;23.00;57.90;;;;;;5091127;28;20404;-68
2023/09/24 06:48:25;;;;;;;1.23;1.00;;;23.00;57.90;;;;;;5091362;28;20412;-66
2023/09/24 06:50:53;;;;;;;1.50;1.17;;;23.00;57.90;;;;;;5091037;28;20411;-67
2023/09/24 06:53:19;;;;;;;2.40;1.17;;;23.00;57.90;;;;;;5090926;28;20974;-68
2023/09/24 06:55:45;;;;;;;1.50;1.40;;;23.00;57.90;;;;;;5090865;28;20461;-67
2023/09/24 06:58:12;;;;;;;1.57;1.10;;;22.90;57.80;;;;;;5091327;28;20264;-67
2023/09/24 07:00:38;;;;;;;2.20;1.27;;;23.00;57.90;;;;;;5091042;28;20455;-66
2023/09/24 07:03:05;;;;;;;1.77;1.10;;;22.90;57.80;;;;;;5090949;28;20446;-67
2023/09/24 07:05:31;;;;;;;1.63;1.10;;;22.90;58.40;;;;;;5091029;28;20699;-66
2023/09/24 07:07:57;;;;;;;2.27;1.50;;;23.00;57.90;;;;;;5090863;28;20488;-67
2023/09/24 07:10:23;;;;;;;2.23;1.10;;;22.90;57.80;;;;;;5090855;28;20907;-67
2023/09/24 07:12:49;;;;;;;1.17;0.90;;;23.00;57.90;;;;;;5089400;28;20493;-66
2023/09/24 07:15:16;;;;;;;1.47;1.20;;;23.00;57.90;;;;;;5090259;28;20200;-67
2023/09/24 07:17:42;;;;;;;3.53;1.30;;;23.00;57.90;;;;;;5090677;28;20173;-67
2023/09/24 07:20:08;;;;;;;1.80;1.30;;;23.00;57.90;;;;;;5090555;28;20431;-68
2023/09/24 07:22:34;;;;;;;1.40;1.27;;;23.00;57.90;;;;;;5090822;28;20648;-66
2023/09/24 07:24:59;;;;;;;7.77;1.70;;;23.00;57.90;;;;;;5090624;28;20416;-66
2023/09/24 07:27:25;;;;;;;2.00;1.23;;;22.90;57.70;;;;;;5090693;28;20178;-67
2023/09/24 07:29:51;;;;;;;2.00;1.70;;;22.90;57.70;;;;;;5090660;28;20635;-69
2023/09/24 07:32:16;;;;;;;3.27;1.40;;;22.90;57.70;;;;;;5089140;28;20225;-68
2023/09/24 07:34:46;;;;;;;2.27;1.50;;;22.90;57.50;;;;;;5090796;28;20252;-69
2023/09/24 07:37:12;;;;;;;1.80;1.50;;;22.90;57.30;;;;;;5090687;28;20747;-70
2023/09/24 07:39:38;;;;;;;2.03;1.87;;;22.90;57.10;;;;;;5090764;28;20415;-69
2023/09/24 07:42:03;;;;;;;1.87;1.53;;;22.90;57.00;;;;;;5090316;28;20515;-68
2023/09/24 07:44:29;;;;;;;2.27;1.80;;;22.90;56.90;;;;;;5090640;28;20675;-67
2023/09/24 07:46:55;;;;;;;1.80;1.70;;;22.90;56.80;;;;;;5090947;28;20215;-68
2023/09/24 07:49:20;;;;;;;2.70;1.67;;;22.90;56.80;;;;;;5094623;28;20174;-68
2023/09/24 07:51:46;;;;;;;1.77;1.60;;;22.80;56.80;;;;;;5094309;28;20177;-67
2023/09/24 07:54:13;;;;;;;3.27;1.67;;;22.90;57.00;;;;;;5094235;28;20566;-68
2023/09/24 07:56:41;;;;;;;3.27;1.73;;;22.80;57.00;;;;;;5094208;28;20165;-68
2023/09/24 07:59:07;;;;;;;1.60;1.30;;;22.80;57.00;;;;;;5093473;28;20408;-68
2023/09/24 08:01:33;;;;;;;1.57;1.47;;;22.80;57.20;;;;;;5094148;28;20837;-68
2023/09/24 08:03:59;;;;;;;1.93;1.47;;;22.80;57.20;;;;;;5094076;28;20459;-67
2023/09/24 08:06:28;;;;;;;3.20;1.37;;;22.80;57.30;;;;;;5093679;28;20184;-67
2023/09/24 08:08:54;;;;;;;2.37;1.50;;;22.80;57.30;;;;;;5093544;28;20173;-69
2023/09/24 08:11:19;;;;;;;2.33;1.87;;;22.80;57.30;;;;;;5094253;28;20422;-69
2023/09/24 08:13:45;;;;;;;1.20;1.10;;;22.80;57.30;;;;;;5093847;28;20273;-68
2023/09/24 08:16:10;;;;;;;5.70;1.60;;;22.80;57.40;;;;;;5093797;28;20240;-67
2023/09/24 08:18:36;;;;;;;3.33;1.50;;;22.80;57.40;;;;;;5093903;28;20544;-68
2023/09/24 08:21:02;;;;;;;1.53;1.40;;;22.80;57.40;;;;;;5093772;28;20189;-69
2023/09/24 08:23:27;;;;;;;1.73;1.23;;;22.80;57.40;;;;;;5093944;28;20296;-69
2023/09/24 08:25:53;;;;;;;2.10;1.57;;;22.80;58.00;;;;;;5093754;28;20177;-68
2023/09/24 08:28:19;;;;;;;1.70;1.60;;;22.80;57.40;;;;;;5093736;28;20177;-68
2023/09/24 08:30:45;;;;;;;1.60;1.40;;;22.80;57.50;;;;;;5092328;28;20691;-68
2023/09/24 08:33:10;;;;;;;2.50;1.50;;;22.80;57.50;;;;;;5093709;28;20238;-69
2023/09/24 08:35:37;;;;;;;1.83;1.40;;;22.80;57.50;;;;;;5093441;28;20802;-68
2023/09/24 08:38:03;;;;;;;1.93;1.40;;;22.80;57.40;;;;;;5093428;28;20184;-69
2023/09/24 08:40:30;;;;;;;1.50;1.13;;;22.80;57.50;;;;;;5093527;28;20782;-70
2023/09/24 08:42:57;;;;;;;1.67;1.50;;;22.80;57.50;;;;;;5093742;28;20603;-68
2023/09/24 08:45:29;;;;;;;1.57;1.30;;;22.80;57.50;;;;;;5093324;28;20415;-69
2023/09/24 08:47:55;;;;;;;1.57;1.47;;;22.80;57.50;;;;;;5093335;28;20431;-68
2023/09/24 08:50:21;;;;;;;1.70;1.50;;;22.80;57.50;;;;;;5093230;28;20918;-69
2023/09/24 08:52:47;;;;;;;1.90;1.40;;;22.80;57.50;;;;;;5093161;28;20428;-68
2023/09/24 08:55:14;;;;;;;1.27;1.13;;;22.80;57.50;;;;;;5093321;28;20216;-68
2023/09/24 08:57:44;;;;;;;1.50;1.30;;;22.90;57.60;;;;;;5092877;28;20208;-69
2023/09/24 09:00:11;;;;;;;1.60;1.43;;;22.90;57.60;;;;;;5093112;28;20433;-68
2023/09/24 09:02:43;;;;;;;2.00;1.47;;;22.90;57.70;;;;;;5092933;28;20439;-69
2023/09/24 09:05:25;;;;;;;3.53;1.47;;;22.80;57.60;;;;;;5093112;28;20526;-68
2023/09/24 09:07:58;;;;;;;1.80;1.40;;;22.90;57.70;;;;;;5092931;28;20783;-69
2023/09/24 09:10:32;;;;;;;1.77;1.67;;;22.80;57.60;;;;;;5093248;28;20398;-70
2023/09/24 09:13:08;;;;;;;1.40;1.30;;;22.80;57.60;;;;;;5092795;28;20431;-67
2023/09/24 09:15:35;;;;;;;2.80;1.47;;;22.90;57.70;;;;;;5091413;28;20534;-67
2023/09/24 09:18:01;;;;;;;1.93;1.30;;;22.80;57.60;;;;;;5087246;28;20413;-69
2023/09/24 09:20:47;;;;;;;1.50;1.40;;;22.80;57.60;;;;;;5082974;28;20447;-67
2023/09/24 09:23:15;;;;;;;2.13;1.53;;;22.80;57.70;;;;;;5081068;28;20832;-68
2023/09/24 09:25:46;;;;;;;1.53;1.43;;;22.80;57.60;;;;;;5081698;28;20487;-68
2023/09/24 09:28:28;;;;;;;1.90;1.30;;;22.80;57.60;;;;;;5072274;28;20404;-69
2023/09/24 09:31:07;;;;;;;1.43;1.27;;;22.90;57.70;;;;;;5072207;28;20409;-67
2023/09/24 09:33:43;;;;;;;1.43;1.20;;;22.80;57.70;;;;;;5072404;28;20431;-68
2023/09/24 09:36:23;;;;;;;1.73;1.60;;;22.80;57.60;;;;;;5071972;28;20483;-69
2023/09/24 09:38:50;;;;;;;1.50;1.20;;;22.80;57.60;;;;;;5072052;28;20825;-68
2023/09/24 09:41:17;;;;;;;1.50;1.40;;;22.80;57.70;;;;;;5072019;28;20446;-68
2023/09/24 09:43:46;;;;;;;1.30;1.20;;;22.80;57.70;;;;;;5071892;28;20425;-69
2023/09/24 09:46:15;;;;;;;2.33;1.40;;;22.80;57.60;;;;;;5072135;28;20904;-69
2023/09/24 09:48:48;;;;;;;1.50;1.33;;;22.80;57.60;;;;;;5071865;28;20420;-69
2023/09/24 09:51:18;;;;;;;1.63;1.20;;;22.90;57.70;;;;;;5071891;28;20819;-66
2023/09/24 09:53:45;;;;;;;1.40;1.20;;;22.80;57.70;;;;;;5071741;28;20443;-68
2023/09/24 09:56:11;;;;;;;1.83;1.33;;;22.80;57.70;;;;;;5071730;28;20872;-69
2023/09/24 09:58:38;;;;;;;1.60;1.30;;;22.80;57.70;;;;;;5070266;28;20413;-67
2023/09/24 10:01:05;;;;;;;1.93;1.40;;;22.80;57.70;;;;;;5071743;28;20790;-69
2023/09/24 10:03:38;;;;;;;1.47;1.30;;;22.90;57.70;;;;;;5071629;28;20478;-68
2023/09/24 10:06:07;;;;;;;1.93;1.70;;;22.90;57.70;;;;;;5071729;28;20397;-68
2023/09/24 10:08:43;;;;;;;2.00;1.47;;;22.90;57.70;;;;;;5071545;28;20651;-66
2023/09/24 10:11:11;;;;;;;1.50;1.20;;;22.90;57.70;;;;;;5071264;28;20412;-68
2023/09/24 10:13:45;;;;;;;1.63;1.53;;;22.80;57.70;;;;;;5071307;28;20513;-68
2023/09/24 10:16:26;;;;;;;1.93;1.40;;;22.90;57.80;;;;;;5071375;28;20937;-68
2023/09/24 10:18:59;;;;;;;1.80;1.40;;;22.90;57.70;;;;;;5071457;28;20410;-69
2023/09/24 10:21:30;;;;;;;1.40;1.20;;;22.80;57.70;;;;;;5071438;28;20494;-69
2023/09/24 10:24:20;;;;;;;1.70;1.17;;;22.90;57.80;;;;;;5071327;28;20440;-69
2023/09/24 10:27:07;;;;;;;1.30;1.20;;;22.80;57.70;;;;;;5067098;28;20577;-68
2023/09/24 10:29:45;;;;;;;2.37;1.63;;;22.80;57.70;;;;;;5080823;28;20389;-69
2023/09/24 10:32:12;;;;;;;1.40;1.30;;;22.80;57.70;;;;;;5080580;28;20493;-69
2023/09/24 10:34:55;;;;;;;1.93;1.67;;;22.80;57.80;;;;;;5079655;28;20460;-68
2023/09/24 10:37:22;;;;;;;2.80;1.43;;;22.90;57.80;;;;;;5077946;28;20490;-68
2023/09/24 10:40:03;;;;;;;1.70;1.60;;;22.80;57.70;;;;;;5081766;28;20412;-68
2023/09/24 10:42:31;;;;;;;1.73;1.33;;;22.80;57.70;;;;;;5074601;28;20428;-68
2023/09/24 10:45:06;;;;;;;2.70;1.87;;;22.80;57.80;;;;;;5086095;28;20449;-69
2023/09/24 10:47:38;;;;;;;1.77;1.50;;;22.80;57.70;;;;;;5091292;28;20908;-70
2023/09/24 10:50:05;;;;;;;1.97;1.63;;;22.80;57.70;;;;;;5091219;28;20392;-68
2023/09/24 10:52:53;;;;;;;1.80;1.50;;;22.80;57.70;;;;;;5072747;28;20427;-67
2023/09/24 10:55:30;;;;;;;1.40;1.17;;;22.80;57.70;;;;;;5091183;28;20444;-69
2023/09/24 10:57:57;;;;;;;2.80;1.50;;;22.80;57.70;;;;;;5090997;28;20899;-70
2023/09/24 11:00:25;;;;;;;1.73;1.63;;;22.80;57.70;;;;;;5091312;28;20463;-67
2023/09/24 11:02:54;;;;;;;1.60;1.40;;;22.80;57.80;;;;;;5090844;28;20428;-69
2023/09/24 11:05:19;;;;;;;1.70;1.60;;;22.80;57.70;;;;;;5090882;28;20457;-68
2023/09/24 11:07:45;;;;;;;2.40;1.70;;;22.80;57.70;;;;;;5090797;28;20443;-70
2023/09/24 11:10:11;;;;;;;1.70;1.23;;;22.80;57.80;;;;;;5090802;28;20192;-69
2023/09/24 11:12:37;;;;;;;2.13;1.50;;;22.80;57.80;;;;;;5090800;28;20423;-69
2023/09/24 11:15:03;;;;;;;2.40;2.20;;;22.80;57.70;;;;;;5090775;28;20205;-67
2023/09/24 11:17:29;;;;;;;2.47;2.27;;;22.80;57.70;;;;;;5090815;28;20414;-69
2023/09/24 11:19:55;;;;;;;2.47;2.00;;;22.80;57.70;;;;;;5090785;28;20518;-69
2023/09/24 11:22:22;;;;;;;5.77;3.10;;;22.90;57.80;;;;;;5092008;28;20423;-69
2023/09/24 11:25:13;;;;;;;11.80;4.40;;;22.80;57.70;;;;;;5094623;28;20249;-69
2023/09/24 11:27:47;;;;;;;14.93;6.17;;;22.90;57.80;;;;;;5084618;28;20475;-69
2023/09/24 11:30:17;;;;;;;13.00;6.57;;;22.90;57.80;;;;;;5083726;28;20423;-69
2023/09/24 11:32:48;;;;;;;11.53;5.80;;;22.90;57.80;;;;;;5082352;28;20437;-69
2023/09/24 11:35:15;;;;;;;13.33;6.60;;;22.90;57.80;;;;;;5082396;28;20452;-69
2023/09/24 11:38:01;;;;;;;11.40;6.43;;;22.90;57.80;;;;;;5082149;28;20404;-69
2023/09/24 11:40:26;;;;;;;18.97;7.50;;;22.90;57.80;;;;;;5082547;28;20396;-69
2023/09/24 11:43:02;;;;;;;17.73;8.47;;;22.80;57.80;;;;;;5083127;28;20954;-68
2023/09/24 11:45:42;;;;;;;24.23;8.70;;;22.80;57.80;;;;;;5082519;28;20158;-69
2023/09/24 11:48:18;;;;;;;16.63;7.97;;;22.80;57.80;;;;;;5082498;28;20534;-68
2023/09/24 11:50:49;;;;;;;21.23;9.20;;;22.80;57.80;;;;;;5082043;28;20459;-70
2023/09/24 11:53:16;;;;;;;20.37;8.70;;;22.80;57.50;;;;;;5082499;28;20430;-70
2023/09/24 11:55:43;;;;;;;15.67;8.20;;;22.80;57.30;;;;;;5083828;28;20472;-69
2023/09/24 11:58:10;;;;;;;13.33;6.70;;;22.80;57.10;;;;;;5084237;28;20892;-68
2023/09/24 12:00:37;;;;;;;12.47;7.43;;;22.80;56.90;;;;;;5083263;28;20439;-72
2023/09/24 12:03:04;;;;;;;12.80;5.60;;;22.80;56.80;;;;;;5081762;28;20936;-67
2023/09/24 12:05:30;;;;;;;11.43;5.57;;;22.80;56.80;;;;;;5083251;28;20411;-67
2023/09/24 12:07:56;;;;;;;9.10;5.67;;;22.80;57.00;;;;;;5083286;28;20503;-68
2023/09/24 12:10:22;;;;;;;12.57;5.67;;;22.80;57.10;;;;;;5081595;28;20504;-67
2023/09/24 12:12:49;;;;;;;10.47;4.27;;;22.80;57.00;;;;;;5084453;28;20193;-66
2023/09/24 12:15:15;;;;;;;11.23;3.77;;;22.80;56.90;;;;;;5094012;28;20285;-66
2023/09/24 12:17:42;;;;;;;7.77;4.17;;;22.80;56.80;;;;;;5094260;28;20842;-69
2023/09/24 12:20:09;;;;;;;4.23;2.60;;;22.80;56.70;;;;;;5094202;28;20207;-67
2023/09/24 12:22:35;;;;;;;3.70;2.20;;;22.80;56.50;;;;;;5086751;28;20470;-67
2023/09/24 12:25:00;;;;;;;4.93;2.10;;;22.80;56.30;;;;;;5091698;28;20529;-67
2023/09/24 12:27:29;;;;;;;5.63;2.40;;;22.80;56.10;;;;;;5075040;28;20471;-68
2023/09/24 12:29:55;;;;;;;3.90;2.47;;;22.80;55.80;;;;;;5073211;28;20277;-68
2023/09/24 12:32:21;;;;;;;3.30;2.47;;;22.80;55.70;;;;;;5071765;28;20508;-68
2023/09/24 12:34:46;;;;;;;4.83;2.60;;;22.70;55.60;;;;;;5071422;28;20922;-67
2023/09/24 12:37:12;;;;;;;5.30;2.43;;;22.80;55.70;;;;;;5072774;28;20401;-67
2023/09/24 12:39:38;;;;;;;4.10;2.53;;;22.80;55.70;;;;;;5073276;28;20177;-68
2023/09/24 12:42:04;;;;;;;4.23;2.57;;;22.70;55.90;;;;;;5073560;28;20229;-68
2023/09/24 12:44:29;;;;;;;2.87;2.53;;;22.70;56.00;;;;;;5073365;28;20847;-68
2023/09/24 12:46:55;;;;;;;5.63;2.83;;;22.80;56.20;;;;;;5073164;28;20166;-67